Main page
METAR-TAF:

METAR-TAF

Airports :

Scatsta Airport

Scatsta, Shetland, Scotland

latitude: 60-26N, longitude: 001-18W, elevation: 22 m

Current weather observation

The report was made 25 minutes ago, at 13:20 UTC
Wind 13 kt from the South/Southeast
Temperature 13°C
Humidity 82%
Pressure 1026 hPa
Visibility 10 km or more
Few clouds at a height of 1000 ft

METAR: EGPM 241320Z 16013KT 9999 FEW010 13/10 Q1026 TEMPO BKN010

Time: 14:45 (13:45 UTC)

Forecast

The report was made 2 hours and 42 minutes ago, at 11:03 UTC
Forecast valid from 24 at 12 UTC to 24 at 20 UTC
Wind 10 kt from the South
Visibility 10 km or more
Few clouds at a height of 1400 ft
Temporary
from 24 at 15 UTC to 24 at 20 UTC
Broken clouds at a height of 500 ft
Probability 30% :
Temporary
from 24 at 16 UTC to 24 at 20 UTC
Visibility: 6000 m
Broken clouds at a height of 300 ft

TAF: EGPM 241103Z 2412/2420 17010KT 9999 FEW014 TEMPO 2415/2420 BKN005 PROB30 TEMPO 2416/2420 6000 BKN003

Weather observations and forecasts of more than 4000 airports (METAR and TAF reports).

The available stations are represented by yellow and red dots on the map.

Hover mouse over dot to see the name of the station.

Then click to see weather observations and forecasts.

To change the map : click on the green buttons with a black cross to zoom in, on the green button with a dash to zoom out, or on the green arrows for adjacent maps.


METAR-TAF: